sensor_id;sensor_type;location;lat;lon;timestamp;pressure;altitude;pressure_sealevel;temperature;humidity
64402;BME280;50724;42.376;23.768;2023-02-20T08:10:53;93625.44;;;9.46;46.15
64402;BME280;50724;42.376;23.768;2023-02-20T08:14:03;93614.03;;;9.47;45.11
64402;BME280;50724;42.376;23.768;2023-02-20T08:17:04;93629.66;;;9.56;45.04
64402;BME280;50724;42.376;23.768;2023-02-20T08:23:18;93615.03;;;9.81;45.40
64402;BME280;50724;42.376;23.768;2023-02-20T08:26:20;93611.59;;;9.81;45.04
64402;BME280;50724;42.376;23.768;2023-02-20T08:29:20;93586.16;;;9.65;45.07
64402;BME280;50724;42.376;23.768;2023-02-20T08:32:21;93621.16;;;9.72;45.08
64402;BME280;50724;42.376;23.768;2023-02-20T08:35:22;93611.31;;;9.84;45.64
64402;BME280;50724;42.376;23.768;2023-02-20T08:41:30;93613.03;;;9.93;38.10
64402;BME280;50724;42.376;23.768;2023-02-20T08:44:31;93591.59;;;9.54;35.17
64402;BME280;50724;42.376;23.768;2023-02-20T08:47:32;93630.50;;;9.47;35.80
64402;BME280;50724;42.376;23.768;2023-02-20T08:50:32;93598.19;;;9.93;34.55
64402;BME280;50724;42.376;23.768;2023-02-20T08:53:33;93630.09;;;9.87;34.04
64402;BME280;50724;42.376;23.768;2023-02-20T08:56:34;93599.88;;;9.85;33.96
64402;BME280;50724;42.376;23.768;2023-02-20T08:59:34;93620.47;;;9.88;34.37
64402;BME280;50724;42.376;23.768;2023-02-20T09:02:36;93632.06;;;10.03;33.79
64402;BME280;50724;42.376;23.768;2023-02-20T09:05:36;93643.72;;;9.91;34.36
64402;BME280;50724;42.376;23.768;2023-02-20T09:08:37;93642.56;;;10.11;33.98
64402;BME280;50724;42.376;23.768;2023-02-20T09:11:37;93634.56;;;10.22;32.63
64402;BME280;50724;42.376;23.768;2023-02-20T09:14:38;93635.44;;;10.30;32.74
64402;BME280;50724;42.376;23.768;2023-02-20T09:17:38;93595.47;;;10.20;31.71
64402;BME280;50724;42.376;23.768;2023-02-20T09:20:39;93639.09;;;10.38;32.56
64402;BME280;50724;42.376;23.768;2023-02-20T09:23:40;93650.50;;;10.54;32.35
64402;BME280;50724;42.376;23.768;2023-02-20T09:26:41;93637.38;;;10.28;32.43
64402;BME280;50724;42.376;23.768;2023-02-20T09:29:41;93642.91;;;10.25;33.05
64402;BME280;50724;42.376;23.768;2023-02-20T09:32:43;93646.31;;;10.44;32.55
64402;BME280;50724;42.376;23.768;2023-02-20T09:35:43;93660.13;;;10.54;31.74
64402;BME280;50724;42.376;23.768;2023-02-20T09:38:44;93645.34;;;10.27;32.98
64402;BME280;50724;42.376;23.768;2023-02-20T09:44:58;93650.88;;;10.59;31.55
64402;BME280;50724;42.376;23.768;2023-02-20T09:48:32;93603.41;;;10.54;31.91
64402;BME280;50724;42.376;23.768;2023-02-20T09:51:41;93654.16;;;10.44;32.11
64402;BME280;50724;42.376;23.768;2023-02-20T09:54:48;93667.06;;;10.88;31.49
64402;BME280;50724;42.376;23.768;2023-02-20T09:57:52;93672.81;;;10.66;30.51
64402;BME280;50724;42.376;23.768;2023-02-20T10:00:57;93654.91;;;10.54;31.55
64402;BME280;50724;42.376;23.768;2023-02-20T10:04:04;93669.75;;;10.53;31.44
64402;BME280;50724;42.376;23.768;2023-02-20T10:07:38;93652.19;;;10.63;31.90
64402;BME280;50724;42.376;23.768;2023-02-20T10:10:42;93657.16;;;10.49;31.69
64402;BME280;50724;42.376;23.768;2023-02-20T10:13:57;93651.53;;;10.61;31.13
64402;BME280;50724;42.376;23.768;2023-02-20T10:17:08;93666.84;;;10.56;30.29
64402;BME280;50724;42.376;23.768;2023-02-20T10:20:22;93661.69;;;10.64;31.97
64402;BME280;50724;42.376;23.768;2023-02-20T10:26:48;93632.44;;;10.94;29.60
64402;BME280;50724;42.376;23.768;2023-02-20T10:29:53;93627.78;;;11.14;28.36
64402;BME280;50724;42.376;23.768;2023-02-20T10:36:39;93642.59;;;10.97;29.01
64402;BME280;50724;42.376;23.768;2023-02-20T10:39:49;93640.38;;;11.11;30.70
64402;BME280;50724;42.376;23.768;2023-02-20T10:42:58;93643.81;;;11.11;31.56
64402;BME280;50724;42.376;23.768;2023-02-20T10:50:01;93620.41;;;11.51;30.08
64402;BME280;50724;42.376;23.768;2023-02-20T10:52:50;93614.22;;;11.19;30.45
64402;BME280;50724;42.376;23.768;2023-02-20T10:56:23;93636.81;;;11.20;28.69
64402;BME280;50724;42.376;23.768;2023-02-20T10:59:29;93617.88;;;10.92;27.62
64402;BME280;50724;42.376;23.768;2023-02-20T11:04:11;93609.97;;;11.18;27.03
64402;BME280;50724;42.376;23.768;2023-02-20T11:07:21;93589.47;;;11.05;28.20
64402;BME280;50724;42.376;23.768;2023-02-20T11:10:22;93599.75;;;11.32;28.64
64402;BME280;50724;42.376;23.768;2023-02-20T11:13:24;93588.31;;;11.41;27.17
64402;BME280;50724;42.376;23.768;2023-02-20T11:16:37;93582.94;;;11.51;26.20
64402;BME280;50724;42.376;23.768;2023-02-20T11:19:54;93588.97;;;11.43;25.71
64402;BME280;50724;42.376;23.768;2023-02-20T11:22:55;93592.63;;;11.66;25.96
64402;BME280;50724;42.376;23.768;2023-02-20T11:26:18;93592.41;;;11.44;24.08
64402;BME280;50724;42.376;23.768;2023-02-20T11:29:22;93593.16;;;11.28;24.63
64402;BME280;50724;42.376;23.768;2023-02-20T11:32:37;93596.47;;;11.38;24.87
64402;BME280;50724;42.376;23.768;2023-02-20T11:35:41;93583.69;;;11.35;24.24
64402;BME280;50724;42.376;23.768;2023-02-20T11:38:42;93610.38;;;11.81;25.22
64402;BME280;50724;42.376;23.768;2023-02-20T11:41:42;93592.75;;;11.57;25.14
64402;BME280;50724;42.376;23.768;2023-02-20T11:44:43;93590.91;;;11.99;24.47
64402;BME280;50724;42.376;23.768;2023-02-20T11:47:44;93607.41;;;11.76;25.12
64402;BME280;50724;42.376;23.768;2023-02-20T11:50:51;93599.38;;;11.27;24.50
64402;BME280;50724;42.376;23.768;2023-02-20T11:57:29;93569.91;;;11.75;24.25
64402;BME280;50724;42.376;23.768;2023-02-20T12:00:45;93590.88;;;11.83;24.20
64402;BME280;50724;42.376;23.768;2023-02-20T12:03:56;93608.25;;;11.76;23.71
64402;BME280;50724;42.376;23.768;2023-02-20T12:06:56;93594.06;;;11.53;22.88
64402;BME280;50724;42.376;23.768;2023-02-20T12:10:00;93592.25;;;11.45;24.22
64402;BME280;50724;42.376;23.768;2023-02-20T12:13:03;93594.72;;;11.55;24.79
64402;BME280;50724;42.376;23.768;2023-02-20T12:19:23;93601.50;;;11.73;25.85
64402;BME280;50724;42.376;23.768;2023-02-20T12:22:37;93594.38;;;11.50;26.99
64402;BME280;50724;42.376;23.768;2023-02-20T12:29:05;93597.31;;;11.47;27.88
64402;BME280;50724;42.376;23.768;2023-02-20T12:35:35;93609.88;;;11.35;28.33
64402;BME280;50724;42.376;23.768;2023-02-20T12:38:47;93605.66;;;11.42;28.17
64402;BME280;50724;42.376;23.768;2023-02-20T12:45:25;93590.88;;;11.33;28.22
64402;BME280;50724;42.376;23.768;2023-02-20T12:48:35;93595.13;;;11.26;29.25
64402;BME280;50724;42.376;23.768;2023-02-20T12:52:00;93591.72;;;11.34;29.25
64402;BME280;50724;42.376;23.768;2023-02-20T12:55:41;93591.59;;;11.51;28.93
64402;BME280;50724;42.376;23.768;2023-02-20T12:58:47;93589.53;;;11.21;29.90
64402;BME280;50724;42.376;23.768;2023-02-20T13:01:50;93584.09;;;11.15;30.73
64402;BME280;50724;42.376;23.768;2023-02-20T13:05:00;93585.34;;;11.36;31.40
64402;BME280;50724;42.376;23.768;2023-02-20T13:08:10;93592.72;;;11.41;30.34
64402;BME280;50724;42.376;23.768;2023-02-20T13:11:15;93606.50;;;11.51;30.76
64402;BME280;50724;42.376;23.768;2023-02-20T13:17:41;93593.63;;;11.24;30.76
64402;BME280;50724;42.376;23.768;2023-02-20T13:20:49;93590.72;;;11.27;31.53
64402;BME280;50724;42.376;23.768;2023-02-20T13:24:12;93586.25;;;11.11;31.38
64402;BME280;50724;42.376;23.768;2023-02-20T13:27:30;93583.88;;;11.42;31.87
64402;BME280;50724;42.376;23.768;2023-02-20T13:30:31;93589.91;;;11.34;32.05
64402;BME280;50724;42.376;23.768;2023-02-20T13:33:33;93559.22;;;11.11;32.72
64402;BME280;50724;42.376;23.768;2023-02-20T13:39:40;93595.63;;;10.96;33.91
64402;BME280;50724;42.376;23.768;2023-02-20T13:42:40;93595.81;;;10.94;34.29
64402;BME280;50724;42.376;23.768;2023-02-20T13:45:43;93584.47;;;10.86;34.10
64402;BME280;50724;42.376;23.768;2023-02-20T13:48:46;93598.56;;;10.93;34.59
64402;BME280;50724;42.376;23.768;2023-02-20T13:51:47;93610.84;;;10.92;35.15
64402;BME280;50724;42.376;23.768;2023-02-20T13:54:47;93627.69;;;10.90;34.61
64402;BME280;50724;42.376;23.768;2023-02-20T13:57:51;93630.53;;;10.79;35.19
64402;BME280;50724;42.376;23.768;2023-02-20T14:00:53;93624.44;;;10.70;35.66
64402;BME280;50724;42.376;23.768;2023-02-20T14:04:02;93629.41;;;10.81;35.76
64402;BME280;50724;42.376;23.768;2023-02-20T14:07:03;93626.69;;;10.91;35.50
64402;BME280;50724;42.376;23.768;2023-02-20T14:10:24;93628.44;;;10.82;35.77
64402;BME280;50724;42.376;23.768;2023-02-20T14:13:24;93620.97;;;10.87;36.44
64402;BME280;50724;42.376;23.768;2023-02-20T14:16:28;93625.50;;;10.60;36.75
64402;BME280;50724;42.376;23.768;2023-02-20T14:19:29;93628.34;;;10.41;37.84
64402;BME280;50724;42.376;23.768;2023-02-20T14:22:32;93629.09;;;10.33;37.97
64402;BME280;50724;42.376;23.768;2023-02-20T14:25:32;93642.31;;;10.31;38.02
64402;BME280;50724;42.376;23.768;2023-02-20T14:28:34;93643.53;;;10.19;37.98
64402;BME280;50724;42.376;23.768;2023-02-20T14:31:36;93648.56;;;10.03;38.94
64402;BME280;50724;42.376;23.768;2023-02-20T14:34:53;93649.31;;;10.13;38.65
64402;BME280;50724;42.376;23.768;2023-02-20T14:41:21;93655.59;;;10.20;38.77
64402;BME280;50724;42.376;23.768;2023-02-20T14:44:22;93653.31;;;10.17;39.07
64402;BME280;50724;42.376;23.768;2023-02-20T14:47:23;93653.56;;;9.97;39.80
64402;BME280;50724;42.376;23.768;2023-02-20T14:50:32;93639.94;;;9.76;40.55
64402;BME280;50724;42.376;23.768;2023-02-20T14:53:33;93655.31;;;9.61;40.95
64402;BME280;50724;42.376;23.768;2023-02-20T14:56:34;93657.41;;;9.57;41.06
64402;BME280;50724;42.376;23.768;2023-02-20T14:59:36;93658.50;;;9.55;41.28
64402;BME280;50724;42.376;23.768;2023-02-20T15:02:41;93657.44;;;9.48;41.52
64402;BME280;50724;42.376;23.768;2023-02-20T15:05:42;93647.88;;;9.39;41.79
64402;BME280;50724;42.376;23.768;2023-02-20T15:08:43;93637.22;;;9.50;41.64
64402;BME280;50724;42.376;23.768;2023-02-20T15:11:50;93623.50;;;9.48;41.43
64402;BME280;50724;42.376;23.768;2023-02-20T15:14:59;93639.91;;;9.40;42.03
64402;BME280;50724;42.376;23.768;2023-02-20T15:18:12;93635.78;;;9.38;42.36
64402;BME280;50724;42.376;23.768;2023-02-20T15:21:30;93643.78;;;9.36;42.49
64402;BME280;50724;42.376;23.768;2023-02-20T15:24:40;93648.91;;;9.28;42.86
64402;BME280;50724;42.376;23.768;2023-02-20T15:31:20;93659.81;;;9.14;43.15
64402;BME280;50724;42.376;23.768;2023-02-20T15:34:29;93654.34;;;9.08;43.34
64402;BME280;50724;42.376;23.768;2023-02-20T15:37:32;93637.50;;;9.02;43.83
64402;BME280;50724;42.376;23.768;2023-02-20T15:40:33;93652.63;;;8.89;44.27
64402;BME280;50724;42.376;23.768;2023-02-20T15:43:34;93658.69;;;8.80;44.58
64402;BME280;50724;42.376;23.768;2023-02-20T15:46:35;93663.66;;;8.73;44.62
64402;BME280;50724;42.376;23.768;2023-02-20T15:49:35;93665.03;;;8.68;45.17
64402;BME280;50724;42.376;23.768;2023-02-20T15:52:36;93663.69;;;8.54;45.56
64402;BME280;50724;42.376;23.768;2023-02-20T15:55:36;93661.38;;;8.42;46.05
64402;BME280;50724;42.376;23.768;2023-02-20T15:58:38;93652.34;;;8.36;46.50
64402;BME280;50724;42.376;23.768;2023-02-20T16:01:41;93666.75;;;8.30;46.87
64402;BME280;50724;42.376;23.768;2023-02-20T16:04:41;93670.72;;;8.15;47.38
64402;BME280;50724;42.376;23.768;2023-02-20T16:07:42;93680.47;;;8.04;48.34
64402;BME280;50724;42.376;23.768;2023-02-20T16:10:42;93682.22;;;7.94;48.80
64402;BME280;50724;42.376;23.768;2023-02-20T16:13:45;93702.91;;;7.95;49.03
64402;BME280;50724;42.376;23.768;2023-02-20T16:16:51;93692.63;;;7.84;49.45
64402;BME280;50724;42.376;23.768;2023-02-20T16:19:53;93699.59;;;7.74;49.91
64402;BME280;50724;42.376;23.768;2023-02-20T16:22:53;93680.66;;;7.62;50.59
64402;BME280;50724;42.376;23.768;2023-02-20T16:25:54;93682.59;;;7.70;50.29
64402;BME280;50724;42.376;23.768;2023-02-20T16:29:16;93685.19;;;7.60;50.70
64402;BME280;50724;42.376;23.768;2023-02-20T16:32:17;93687.38;;;7.55;50.97
64402;BME280;50724;42.376;23.768;2023-02-20T16:35:19;93703.13;;;7.54;51.03
64402;BME280;50724;42.376;23.768;2023-02-20T16:38:19;93708.75;;;7.49;50.94
64402;BME280;50724;42.376;23.768;2023-02-20T16:41:19;93708.59;;;7.51;50.70
64402;BME280;50724;42.376;23.768;2023-02-20T16:44:26;93711.88;;;7.53;50.48
64402;BME280;50724;42.376;23.768;2023-02-20T16:47:38;93719.94;;;7.40;51.04
64402;BME280;50724;42.376;23.768;2023-02-20T16:50:38;93718.00;;;7.33;50.84
64402;BME280;50724;42.376;23.768;2023-02-20T16:53:47;93721.25;;;7.25;51.03
64402;BME280;50724;42.376;23.768;2023-02-20T16:56:47;93711.09;;;7.22;51.13
64402;BME280;50724;42.376;23.768;2023-02-20T16:59:53;93708.09;;;7.17;50.99
64402;BME280;50724;42.376;23.768;2023-02-20T17:02:54;93721.19;;;7.16;51.10
64402;BME280;50724;42.376;23.768;2023-02-20T17:05:55;93722.44;;;7.12;50.82
64402;BME280;50724;42.376;23.768;2023-02-20T17:08:58;93721.56;;;7.02;51.18
64402;BME280;50724;42.376;23.768;2023-02-20T17:12:02;93728.06;;;7.17;50.90
64402;BME280;50724;42.376;23.768;2023-02-20T17:15:05;93730.31;;;7.01;51.26
64402;BME280;50724;42.376;23.768;2023-02-20T17:18:05;93731.69;;;7.05;51.39
64402;BME280;50724;42.376;23.768;2023-02-20T17:21:07;93733.47;;;7.04;51.38
64402;BME280;50724;42.376;23.768;2023-02-20T17:24:08;93745.34;;;6.97;51.40
64402;BME280;50724;42.376;23.768;2023-02-20T17:27:09;93743.22;;;6.81;52.00
64402;BME280;50724;42.376;23.768;2023-02-20T17:30:11;93748.44;;;6.61;52.54
64402;BME280;50724;42.376;23.768;2023-02-20T17:33:12;93749.59;;;6.36;52.95
64402;BME280;50724;42.376;23.768;2023-02-20T17:36:13;93741.50;;;6.30;53.10
64402;BME280;50724;42.376;23.768;2023-02-20T17:39:19;93738.66;;;6.33;53.13
64402;BME280;50724;42.376;23.768;2023-02-20T17:42:19;93734.22;;;6.23;53.66
64402;BME280;50724;42.376;23.768;2023-02-20T17:45:20;93739.94;;;6.06;54.27
64402;BME280;50724;42.376;23.768;2023-02-20T17:48:20;93749.06;;;5.90;54.71
64402;BME280;50724;42.376;23.768;2023-02-20T17:51:21;93751.31;;;5.94;54.20
64402;BME280;50724;42.376;23.768;2023-02-20T17:54:21;93754.13;;;5.91;54.30
64402;BME280;50724;42.376;23.768;2023-02-20T17:57:24;93760.16;;;5.81;54.77
64402;BME280;50724;42.376;23.768;2023-02-20T18:00:25;93769.16;;;5.77;55.02
64402;BME280;50724;42.376;23.768;2023-02-20T18:03:26;93767.63;;;5.74;55.38
64402;BME280;50724;42.376;23.768;2023-02-20T18:06:26;93761.09;;;5.80;55.51
64402;BME280;50724;42.376;23.768;2023-02-20T18:09:27;93751.69;;;5.79;55.51
64402;BME280;50724;42.376;23.768;2023-02-20T18:12:28;93748.25;;;5.78;55.25
64402;BME280;50724;42.376;23.768;2023-02-20T18:15:34;93739.44;;;5.70;55.46
64402;BME280;50724;42.376;23.768;2023-02-20T18:18:35;93740.69;;;5.75;55.60
64402;BME280;50724;42.376;23.768;2023-02-20T18:21:36;93736.56;;;5.73;55.85
64402;BME280;50724;42.376;23.768;2023-02-20T18:24:39;93744.88;;;5.67;56.20
64402;BME280;50724;42.376;23.768;2023-02-20T18:27:40;93739.66;;;5.67;56.47
64402;BME280;50724;42.376;23.768;2023-02-20T18:30:40;93737.63;;;5.70;56.49
64402;BME280;50724;42.376;23.768;2023-02-20T18:33:41;93727.94;;;5.83;56.67
64402;BME280;50724;42.376;23.768;2023-02-20T18:36:42;93726.16;;;5.84;56.86
64402;BME280;50724;42.376;23.768;2023-02-20T18:39:43;93722.16;;;5.80;56.91
64402;BME280;50724;42.376;23.768;2023-02-20T18:42:45;93712.38;;;5.83;57.44
64402;BME280;50724;42.376;23.768;2023-02-20T18:45:45;93718.63;;;5.81;57.53
64402;BME280;50724;42.376;23.768;2023-02-20T18:48:45;93707.19;;;5.83;57.75
64402;BME280;50724;42.376;23.768;2023-02-20T18:51:46;93709.84;;;6.04;56.95
64402;BME280;50724;42.376;23.768;2023-02-20T18:54:46;93704.66;;;6.04;57.01
64402;BME280;50724;42.376;23.768;2023-02-20T18:57:48;93704.41;;;6.07;56.98
64402;BME280;50724;42.376;23.768;2023-02-20T19:00:49;93702.06;;;6.04;57.11
64402;BME280;50724;42.376;23.768;2023-02-20T19:03:51;93705.94;;;6.09;56.86
64402;BME280;50724;42.376;23.768;2023-02-20T19:06:52;93698.94;;;6.10;56.50
64402;BME280;50724;42.376;23.768;2023-02-20T19:09:53;93685.22;;;6.19;56.18
64402;BME280;50724;42.376;23.768;2023-02-20T19:12:55;93691.38;;;6.18;56.51
64402;BME280;50724;42.376;23.768;2023-02-20T19:15:56;93686.88;;;6.20;56.13
64402;BME280;50724;42.376;23.768;2023-02-20T19:18:56;93685.41;;;6.27;55.76
64402;BME280;50724;42.376;23.768;2023-02-20T19:21:57;93689.09;;;6.24;55.86
64402;BME280;50724;42.376;23.768;2023-02-20T19:24:58;93694.03;;;6.28;55.84
64402;BME280;50724;42.376;23.768;2023-02-20T19:28:00;93667.09;;;6.29;55.73
64402;BME280;50724;42.376;23.768;2023-02-20T19:31:00;93674.09;;;6.28;55.87
64402;BME280;50724;42.376;23.768;2023-02-20T19:34:01;93668.91;;;6.28;55.67
64402;BME280;50724;42.376;23.768;2023-02-20T19:37:02;93669.16;;;6.25;55.70
64402;BME280;50724;42.376;23.768;2023-02-20T19:40:03;93675.03;;;6.27;55.51
64402;BME280;50724;42.376;23.768;2023-02-20T19:43:03;93658.63;;;6.27;55.49
64402;BME280;50724;42.376;23.768;2023-02-20T19:46:04;93663.44;;;6.31;55.24
64402;BME280;50724;42.376;23.768;2023-02-20T19:49:04;93667.47;;;6.24;55.52
64402;BME280;50724;42.376;23.768;2023-02-20T19:52:08;93658.22;;;6.31;55.42
64402;BME280;50724;42.376;23.768;2023-02-20T19:55:16;93663.13;;;6.24;55.63
64402;BME280;50724;42.376;23.768;2023-02-20T19:58:17;93659.25;;;6.19;55.52
64402;BME280;50724;42.376;23.768;2023-02-20T20:01:18;93663.13;;;6.24;55.34
64402;BME280;50724;42.376;23.768;2023-02-20T20:04:21;93675.88;;;6.28;54.68
64402;BME280;50724;42.376;23.768;2023-02-20T20:07:22;93652.09;;;6.32;54.29
64402;BME280;50724;42.376;23.768;2023-02-20T20:10:23;93649.44;;;6.22;54.15
64402;BME280;50724;42.376;23.768;2023-02-20T20:13:24;93642.19;;;6.26;53.55
64402;BME280;50724;42.376;23.768;2023-02-20T20:16:24;93645.53;;;6.28;53.27
64402;BME280;50724;42.376;23.768;2023-02-20T20:19:24;93646.47;;;6.27;53.18
64402;BME280;50724;42.376;23.768;2023-02-20T20:22:26;93640.34;;;6.28;52.76
64402;BME280;50724;42.376;23.768;2023-02-20T20:25:36;93643.22;;;6.35;52.55
64402;BME280;50724;42.376;23.768;2023-02-20T20:28:36;93637.22;;;6.34;52.82
64402;BME280;50724;42.376;23.768;2023-02-20T20:31:39;93636.06;;;6.27;53.20
64402;BME280;50724;42.376;23.768;2023-02-20T20:34:40;93640.72;;;6.23;53.10
64402;BME280;50724;42.376;23.768;2023-02-20T20:37:47;93627.97;;;6.20;52.94
64402;BME280;50724;42.376;23.768;2023-02-20T20:40:47;93626.00;;;6.13;53.07
64402;BME280;50724;42.376;23.768;2023-02-20T20:43:48;93618.97;;;6.04;53.55
64402;BME280;50724;42.376;23.768;2023-02-20T20:46:49;93605.38;;;6.11;53.13
64402;BME280;50724;42.376;23.768;2023-02-20T20:49:50;93626.69;;;6.15;53.10
64402;BME280;50724;42.376;23.768;2023-02-20T20:52:50;93622.34;;;6.15;52.77
64402;BME280;50724;42.376;23.768;2023-02-20T20:55:51;93623.34;;;6.24;52.45
64402;BME280;50724;42.376;23.768;2023-02-20T20:58:51;93619.34;;;6.20;52.34
64402;BME280;50724;42.376;23.768;2023-02-20T21:01:51;93612.38;;;6.20;52.02
64402;BME280;50724;42.376;23.768;2023-02-20T21:04:52;93606.13;;;6.23;51.86
64402;BME280;50724;42.376;23.768;2023-02-20T21:07:53;93612.38;;;6.20;51.63
64402;BME280;50724;42.376;23.768;2023-02-20T21:10:54;93607.50;;;6.27;51.40
64402;BME280;50724;42.376;23.768;2023-02-20T21:13:54;93601.78;;;6.33;50.97
64402;BME280;50724;42.376;23.768;2023-02-20T21:16:55;93601.69;;;6.35;50.86
64402;BME280;50724;42.376;23.768;2023-02-20T21:19:55;93600.53;;;6.28;51.24
64402;BME280;50724;42.376;23.768;2023-02-20T21:22:57;93594.28;;;6.30;50.89
64402;BME280;50724;42.376;23.768;2023-02-20T21:25:58;93587.75;;;6.45;50.58
64402;BME280;50724;42.376;23.768;2023-02-20T21:28:58;93579.28;;;6.43;50.44
64402;BME280;50724;42.376;23.768;2023-02-20T21:31:59;93580.66;;;6.38;50.58
64402;BME280;50724;42.376;23.768;2023-02-20T21:35:00;93574.91;;;6.44;50.35
64402;BME280;50724;42.376;23.768;2023-02-20T21:38:00;93564.97;;;6.49;49.99
64402;BME280;50724;42.376;23.768;2023-02-20T21:41:01;93559.91;;;6.57;49.58
64402;BME280;50724;42.376;23.768;2023-02-20T21:44:02;93562.94;;;6.62;49.65
64402;BME280;50724;42.376;23.768;2023-02-20T21:47:21;93552.69;;;6.60;49.72
64402;BME280;50724;42.376;23.768;2023-02-20T21:50:21;93547.09;;;6.65;49.65
64402;BME280;50724;42.376;23.768;2023-02-20T21:53:22;93537.13;;;6.70;49.68
64402;BME280;50724;42.376;23.768;2023-02-20T21:56:22;93537.28;;;6.78;49.42
64402;BME280;50724;42.376;23.768;2023-02-20T21:59:23;93537.94;;;6.61;50.00
64402;BME280;50724;42.376;23.768;2023-02-20T22:02:23;93532.41;;;6.45;50.80
64402;BME280;50724;42.376;23.768;2023-02-20T22:05:23;93526.88;;;6.38;50.95
64402;BME280;50724;42.376;23.768;2023-02-20T22:08:24;93520.91;;;6.38;51.03
64402;BME280;50724;42.376;23.768;2023-02-20T22:11:43;93519.53;;;6.43;50.70
64402;BME280;50724;42.376;23.768;2023-02-20T22:15:02;93517.91;;;6.52;50.44
64402;BME280;50724;42.376;23.768;2023-02-20T22:18:21;93506.44;;;6.54;50.41
64402;BME280;50724;42.376;23.768;2023-02-20T22:21:40;93517.66;;;6.55;50.56
64402;BME280;50724;42.376;23.768;2023-02-20T22:24:59;93520.50;;;6.52;50.59
64402;BME280;50724;42.376;23.768;2023-02-20T22:28:19;93521.91;;;6.56;50.33
64402;BME280;50724;42.376;23.768;2023-02-20T22:31:40;93502.09;;;6.64;49.97
64402;BME280;50724;42.376;23.768;2023-02-20T22:34:59;93501.94;;;6.66;50.02
64402;BME280;50724;42.376;23.768;2023-02-20T22:38:17;93508.50;;;6.60;50.19
64402;BME280;50724;42.376;23.768;2023-02-20T22:41:37;93504.91;;;6.42;51.02
64402;BME280;50724;42.376;23.768;2023-02-20T22:44:56;93508.63;;;6.49;50.96
64402;BME280;50724;42.376;23.768;2023-02-20T22:48:15;93498.63;;;6.54;50.74
64402;BME280;50724;42.376;23.768;2023-02-20T22:51:33;93494.84;;;6.58;50.52
64402;BME280;50724;42.376;23.768;2023-02-20T22:55:01;93486.25;;;6.67;50.40
64402;BME280;50724;42.376;23.768;2023-02-20T22:58:20;93481.97;;;6.66;50.52
64402;BME280;50724;42.376;23.768;2023-02-20T23:01:39;93481.84;;;6.58;51.00
64402;BME280;50724;42.376;23.768;2023-02-20T23:04:58;93482.53;;;6.60;51.03
64402;BME280;50724;42.376;23.768;2023-02-20T23:08:17;93478.13;;;6.51;51.09
64402;BME280;50724;42.376;23.768;2023-02-20T23:11:37;93471.28;;;6.50;51.17
64402;BME280;50724;42.376;23.768;2023-02-20T23:14:56;93477.16;;;6.52;51.20
64402;BME280;50724;42.376;23.768;2023-02-20T23:18:15;93476.47;;;6.50;51.35
64402;BME280;50724;42.376;23.768;2023-02-20T23:21:34;93484.03;;;6.53;51.26
64402;BME280;50724;42.376;23.768;2023-02-20T23:24:53;93485.34;;;6.48;51.41
64402;BME280;50724;42.376;23.768;2023-02-20T23:28:12;93483.63;;;6.58;51.26
64402;BME280;50724;42.376;23.768;2023-02-20T23:34:50;93492.44;;;6.85;50.56
64402;BME280;50724;42.376;23.768;2023-02-20T23:38:09;93485.44;;;6.86;50.56
64402;BME280;50724;42.376;23.768;2023-02-20T23:41:29;93477.41;;;6.99;50.42
64402;BME280;50724;42.376;23.768;2023-02-20T23:44:50;93481.78;;;7.08;50.16
